<?xml version="1.0" encoding="UTF-8" standalone="no" ?>
<gpx xmlns="http://www.topografix.com/GPX/1/1" xmlns:xsi="http://www.w3.org/2001/XMLSchema-instance" xsi:schemaLocation="http://www.topografix.com/GPX/1/1 http://www.topografix.com/GPX/1/1/gpx.xsd" version="1.1" creator="VisuGPX - https://www.visugpx.com">
  <metadata>
    <name>Chaucenne - étang de Noironte</name>
    <desc><![CDATA[Rando du lundi après-midi ]]></desc>
  </metadata>
  <trk>
    <name><![CDATA[Chaucenne - étang de Noironte]]></name>
    <trkseg>
      <trkpt lat="47.28605" lon="5.89555">
        <ele>224.770473</ele>
        <time>2022-05-25T11:57:21.488Z</time>
      </trkpt>
      <trkpt lat="47.28611" lon="5.89572">
        <ele>224.770473</ele>
        <time>2022-05-25T11:57:38.960Z</time>
      </trkpt>
      <trkpt lat="47.28619" lon="5.89581">
        <ele>224.770473</ele>
        <time>2022-05-25T11:57:51.941Z</time>
      </trkpt>
      <trkpt lat="47.28627" lon="5.89592">
        <ele>224.770473</ele>
        <time>2022-05-25T11:58:05.835Z</time>
      </trkpt>
      <trkpt lat="47.28619" lon="5.89542">
        <ele>224.770473</ele>
        <time>2022-05-25T11:58:51.171Z</time>
      </trkpt>
      <trkpt lat="47.28589" lon="5.89468">
        <ele>226.301073</ele>
        <time>2022-05-25T12:00:09.035Z</time>
      </trkpt>
      <trkpt lat="47.28527" lon="5.89367">
        <ele>230.094917</ele>
        <time>2022-05-25T12:02:17.066Z</time>
      </trkpt>
      <trkpt lat="47.28498" lon="5.89332">
        <ele>231.630378</ele>
        <time>2022-05-25T12:03:09.753Z</time>
      </trkpt>
      <trkpt lat="47.28258" lon="5.8909">
        <ele>244.070159</ele>
        <time>2022-05-25T12:09:54.663Z</time>
      </trkpt>
      <trkpt lat="47.28236" lon="5.89056">
        <ele>245.257806</ele>
        <time>2022-05-25T12:10:37.193Z</time>
      </trkpt>
      <trkpt lat="47.28195" lon="5.88975">
        <ele>247.322249</ele>
        <time>2022-05-25T12:12:08.798Z</time>
      </trkpt>
      <trkpt lat="47.28195" lon="5.88975">
        <ele>247.322249</ele>
        <time>2022-05-25T12:12:09.405Z</time>
      </trkpt>
      <trkpt lat="47.28195" lon="5.88975">
        <ele>247.322249</ele>
        <time>2022-05-25T12:12:09.816Z</time>
      </trkpt>
      <trkpt lat="47.28338" lon="5.88782">
        <ele>248.38451</ele>
        <time>2022-05-25T12:16:07.782Z</time>
      </trkpt>
      <trkpt lat="47.28419" lon="5.88685">
        <ele>246.86425</ele>
        <time>2022-05-25T12:18:17.175Z</time>
      </trkpt>
      <trkpt lat="47.2859" lon="5.88451">
        <ele>241.256166</ele>
        <time>2022-05-25T12:23:12.772Z</time>
      </trkpt>
      <trkpt lat="47.28643" lon="5.88391">
        <ele>239.193217</ele>
        <time>2022-05-25T12:24:37.285Z</time>
      </trkpt>
      <trkpt lat="47.28663" lon="5.8839">
        <ele>238.575472</ele>
        <time>2022-05-25T12:25:02.707Z</time>
      </trkpt>
      <trkpt lat="47.28784" lon="5.88489">
        <ele>234.29566</ele>
        <time>2022-05-25T12:28:01.744Z</time>
      </trkpt>
      <trkpt lat="47.28802" lon="5.88422">
        <ele>232.786542</ele>
        <time>2022-05-25T12:29:04.979Z</time>
      </trkpt>
      <trkpt lat="47.28835" lon="5.88342">
        <ele>230.840865</ele>
        <time>2022-05-25T12:30:25.855Z</time>
      </trkpt>
      <trkpt lat="47.2893" lon="5.88149">
        <ele>230.297755</ele>
        <time>2022-05-25T12:33:43.917Z</time>
      </trkpt>
      <trkpt lat="47.28936" lon="5.88124">
        <ele>230.272037</ele>
        <time>2022-05-25T12:34:07.397Z</time>
      </trkpt>
      <trkpt lat="47.28929" lon="5.88103">
        <ele>230.480748</ele>
        <time>2022-05-25T12:34:27.903Z</time>
      </trkpt>
      <trkpt lat="47.28815" lon="5.87915">
        <ele>237.540065</ele>
        <time>2022-05-25T12:38:25.002Z</time>
      </trkpt>
      <trkpt lat="47.28736" lon="5.87766">
        <ele>243.240412</ele>
        <time>2022-05-25T12:41:25.958Z</time>
      </trkpt>
      <trkpt lat="47.2871" lon="5.87739">
        <ele>244.657216</ele>
        <time>2022-05-25T12:42:10.096Z</time>
      </trkpt>
      <trkpt lat="47.28683" lon="5.87688">
        <ele>245.917545</ele>
        <time>2022-05-25T12:43:08.465Z</time>
      </trkpt>
      <trkpt lat="47.28666" lon="5.87675">
        <ele>246.109192</ele>
        <time>2022-05-25T12:43:33.862Z</time>
      </trkpt>
      <trkpt lat="47.28619" lon="5.87621">
        <ele>246.69129</ele>
        <time>2022-05-25T12:44:48.636Z</time>
      </trkpt>
      <trkpt lat="47.28604" lon="5.87592">
        <ele>246.931856</ele>
        <time>2022-05-25T12:45:18.786Z</time>
      </trkpt>
      <trkpt lat="47.28604" lon="5.87592">
        <ele>246.931856</ele>
        <time>2022-05-25T12:45:19.035Z</time>
      </trkpt>
      <trkpt lat="47.28604" lon="5.87592">
        <ele>246.931856</ele>
        <time>2022-05-25T12:45:19.398Z</time>
      </trkpt>
      <trkpt lat="47.28608" lon="5.87585">
        <ele>246.991323</ele>
        <time>2022-05-25T12:45:26.833Z</time>
      </trkpt>
      <trkpt lat="47.28675" lon="5.87411">
        <ele>245.752083</ele>
        <time>2022-05-25T12:48:13.915Z</time>
      </trkpt>
      <trkpt lat="47.28717" lon="5.8727">
        <ele>243.533499</ele>
        <time>2022-05-25T12:50:26.971Z</time>
      </trkpt>
      <trkpt lat="47.28709" lon="5.87255">
        <ele>243.126868</ele>
        <time>2022-05-25T12:50:44.213Z</time>
      </trkpt>
      <trkpt lat="47.2843" lon="5.87077">
        <ele>235.50757</ele>
        <time>2022-05-25T12:57:11.496Z</time>
      </trkpt>
      <trkpt lat="47.28514" lon="5.86796">
        <ele>237.161684</ele>
        <time>2022-05-25T13:01:33.977Z</time>
      </trkpt>
      <trkpt lat="47.28601" lon="5.86504">
        <ele>241.079893</ele>
        <time>2022-05-25T13:06:16.409Z</time>
      </trkpt>
      <trkpt lat="47.28628" lon="5.86393">
        <ele>240.846226</ele>
        <time>2022-05-25T13:07:52.129Z</time>
      </trkpt>
      <trkpt lat="47.2862" lon="5.86383">
        <ele>240.815247</ele>
        <time>2022-05-25T13:08:05.478Z</time>
      </trkpt>
      <trkpt lat="47.2858" lon="5.86329">
        <ele>240.656357</ele>
        <time>2022-05-25T13:09:12.627Z</time>
      </trkpt>
      <trkpt lat="47.28546" lon="5.86263">
        <ele>238.334235</ele>
        <time>2022-05-25T13:10:24.658Z</time>
      </trkpt>
      <trkpt lat="47.28528" lon="5.86244">
        <ele>237.371926</ele>
        <time>2022-05-25T13:10:53.843Z</time>
      </trkpt>
      <trkpt lat="47.28465" lon="5.86136">
        <ele>233.206269</ele>
        <time>2022-05-25T13:13:01.344Z</time>
      </trkpt>
      <trkpt lat="47.28465" lon="5.86136">
        <ele>233.206269</ele>
        <time>2022-05-25T13:13:02.132Z</time>
      </trkpt>
      <trkpt lat="47.28427" lon="5.86144">
        <ele>231.103778</ele>
        <time>2022-05-25T13:13:54.259Z</time>
      </trkpt>
      <trkpt lat="47.28226" lon="5.86272">
        <ele>219.86641</ele>
        <time>2022-05-25T13:18:47.470Z</time>
      </trkpt>
      <trkpt lat="47.28196" lon="5.86299">
        <ele>218.457613</ele>
        <time>2022-05-25T13:19:32.478Z</time>
      </trkpt>
      <trkpt lat="47.28236" lon="5.86443">
        <ele>215.201483</ele>
        <time>2022-05-25T13:21:46.245Z</time>
      </trkpt>
      <trkpt lat="47.28239" lon="5.86596">
        <ele>214.493039</ele>
        <time>2022-05-25T13:23:52.061Z</time>
      </trkpt>
      <trkpt lat="47.28234" lon="5.86635">
        <ele>214.305874</ele>
        <time>2022-05-25T13:24:25.350Z</time>
      </trkpt>
      <trkpt lat="47.28196" lon="5.86775">
        <ele>215.374635</ele>
        <time>2022-05-25T13:26:32.078Z</time>
      </trkpt>
      <trkpt lat="47.28145" lon="5.86863">
        <ele>216.485111</ele>
        <time>2022-05-25T13:28:12.060Z</time>
      </trkpt>
      <trkpt lat="47.28082" lon="5.86939">
        <ele>218.345719</ele>
        <time>2022-05-25T13:29:57.250Z</time>
      </trkpt>
      <trkpt lat="47.28056" lon="5.86963">
        <ele>219.132302</ele>
        <time>2022-05-25T13:30:37.677Z</time>
      </trkpt>
      <trkpt lat="47.27955" lon="5.87038">
        <ele>221.971847</ele>
        <time>2022-05-25T13:33:06.674Z</time>
      </trkpt>
      <trkpt lat="47.27961" lon="5.87065">
        <ele>222.444564</ele>
        <time>2022-05-25T13:33:31.824Z</time>
      </trkpt>
      <trkpt lat="47.2793" lon="5.87191">
        <ele>224.712319</ele>
        <time>2022-05-25T13:35:31.167Z</time>
      </trkpt>
      <trkpt lat="47.27909" lon="5.87278">
        <ele>225.981083</ele>
        <time>2022-05-25T13:36:52.122Z</time>
      </trkpt>
      <trkpt lat="47.27783" lon="5.87335">
        <ele>227.320396</ele>
        <time>2022-05-25T13:39:35.765Z</time>
      </trkpt>
      <trkpt lat="47.27627" lon="5.87532">
        <ele>227.52966</ele>
        <time>2022-05-25T13:43:43.991Z</time>
      </trkpt>
      <trkpt lat="47.27638" lon="5.87535">
        <ele>227.56515</ele>
        <time>2022-05-25T13:43:58.838Z</time>
      </trkpt>
      <trkpt lat="47.27642" lon="5.87558">
        <ele>227.625571</ele>
        <time>2022-05-25T13:44:17.405Z</time>
      </trkpt>
      <trkpt lat="47.27657" lon="5.8759">
        <ele>227.729414</ele>
        <time>2022-05-25T13:44:49.614Z</time>
      </trkpt>
      <trkpt lat="47.27684" lon="5.87634">
        <ele>227.887346</ele>
        <time>2022-05-25T13:45:38.463Z</time>
      </trkpt>
      <trkpt lat="47.27733" lon="5.87676">
        <ele>228.11116</ele>
        <time>2022-05-25T13:46:48.418Z</time>
      </trkpt>
      <trkpt lat="47.27746" lon="5.87697">
        <ele>228.187865</ele>
        <time>2022-05-25T13:47:12.572Z</time>
      </trkpt>
      <trkpt lat="47.27774" lon="5.8772">
        <ele>228.542594</ele>
        <time>2022-05-25T13:47:51.152Z</time>
      </trkpt>
      <trkpt lat="47.27801" lon="5.87773">
        <ele>229.240558</ele>
        <time>2022-05-25T13:48:46.683Z</time>
      </trkpt>
      <trkpt lat="47.27818" lon="5.8778">
        <ele>229.522705</ele>
        <time>2022-05-25T13:49:09.437Z</time>
      </trkpt>
      <trkpt lat="47.27857" lon="5.8778">
        <ele>230.126585</ele>
        <time>2022-05-25T13:49:58.615Z</time>
      </trkpt>
      <trkpt lat="47.27907" lon="5.87787">
        <ele>230.911771</ele>
        <time>2022-05-25T13:51:04.432Z</time>
      </trkpt>
      <trkpt lat="47.27931" lon="5.87791">
        <ele>231.298936</ele>
        <time>2022-05-25T13:51:35.618Z</time>
      </trkpt>
      <trkpt lat="47.27954" lon="5.87779">
        <ele>231.709115</ele>
        <time>2022-05-25T13:52:08.046Z</time>
      </trkpt>
      <trkpt lat="47.27981" lon="5.87748">
        <ele>232.270851</ele>
        <time>2022-05-25T13:52:52.328Z</time>
      </trkpt>
      <trkpt lat="47.28015" lon="5.87725">
        <ele>232.892935</ele>
        <time>2022-05-25T13:53:40.132Z</time>
      </trkpt>
      <trkpt lat="47.28023" lon="5.87742">
        <ele>233.123929</ele>
        <time>2022-05-25T13:53:57.783Z</time>
      </trkpt>
      <trkpt lat="47.28028" lon="5.87773">
        <ele>233.491354</ele>
        <time>2022-05-25T13:54:25.454Z</time>
      </trkpt>
      <trkpt lat="47.27985" lon="5.87836">
        <ele>233.873257</ele>
        <time>2022-05-25T13:55:39.539Z</time>
      </trkpt>
      <trkpt lat="47.27972" lon="5.87849">
        <ele>233.795693</ele>
        <time>2022-05-25T13:55:58.334Z</time>
      </trkpt>
      <trkpt lat="47.27957" lon="5.87862">
        <ele>233.707667</ele>
        <time>2022-05-25T13:56:19.647Z</time>
      </trkpt>
      <trkpt lat="47.27815" lon="5.87895">
        <ele>233.069295</ele>
        <time>2022-05-25T13:59:16.301Z</time>
      </trkpt>
      <trkpt lat="47.27799" lon="5.87912">
        <ele>233.030114</ele>
        <time>2022-05-25T13:59:40.463Z</time>
      </trkpt>
      <trkpt lat="47.27797" lon="5.87931">
        <ele>233.004492</ele>
        <time>2022-05-25T13:59:56.719Z</time>
      </trkpt>
      <trkpt lat="47.27801" lon="5.87945">
        <ele>232.982881</ele>
        <time>2022-05-25T14:00:10.623Z</time>
      </trkpt>
      <trkpt lat="47.27817" lon="5.87995">
        <ele>232.909556</ele>
        <time>2022-05-25T14:00:55.700Z</time>
      </trkpt>
      <trkpt lat="47.2786" lon="5.8806">
        <ele>232.787824</ele>
        <time>2022-05-25T14:02:10.121Z</time>
      </trkpt>
      <trkpt lat="47.2786" lon="5.8806">
        <ele>232.787824</ele>
        <time>2022-05-25T14:02:10.676Z</time>
      </trkpt>
      <trkpt lat="47.2786" lon="5.8806">
        <ele>232.787824</ele>
        <time>2022-05-25T14:02:11.049Z</time>
      </trkpt>
      <trkpt lat="47.27817" lon="5.87995">
        <ele>233.980085</ele>
        <time>2022-05-25T14:03:28.861Z</time>
      </trkpt>
      <trkpt lat="47.27801" lon="5.87945">
        <ele>234.887786</ele>
        <time>2022-05-25T14:04:16.235Z</time>
      </trkpt>
      <trkpt lat="47.27817" lon="5.87995">
        <ele>235.795486</ele>
        <time>2022-05-25T14:05:04.367Z</time>
      </trkpt>
      <trkpt lat="47.2786" lon="5.8806">
        <ele>237.453601</ele>
        <time>2022-05-25T14:06:26.761Z</time>
      </trkpt>
      <trkpt lat="47.2786" lon="5.8806">
        <ele>237.453601</ele>
        <time>2022-05-25T14:06:27.317Z</time>
      </trkpt>
      <trkpt lat="47.27891" lon="5.88086">
        <ele>239.418998</ele>
        <time>2022-05-25T14:07:18.990Z</time>
      </trkpt>
      <trkpt lat="47.27967" lon="5.88172">
        <ele>244.60584</ele>
        <time>2022-05-25T14:09:38.028Z</time>
      </trkpt>
      <trkpt lat="47.27996" lon="5.88212">
        <ele>246.78061</ele>
        <time>2022-05-25T14:10:36.648Z</time>
      </trkpt>
      <trkpt lat="47.28064" lon="5.88282">
        <ele>249.015968</ele>
        <time>2022-05-25T14:12:29.473Z</time>
      </trkpt>
      <trkpt lat="47.28092" lon="5.88323">
        <ele>250.047657</ele>
        <time>2022-05-25T14:13:18.977Z</time>
      </trkpt>
      <trkpt lat="47.2808" lon="5.88352">
        <ele>250.634263</ele>
        <time>2022-05-25T14:13:47.053Z</time>
      </trkpt>
      <trkpt lat="47.28044" lon="5.88437">
        <ele>251.810051</ele>
        <time>2022-05-25T14:15:11.357Z</time>
      </trkpt>
      <trkpt lat="47.28028" lon="5.88466">
        <ele>251.964379</ele>
        <time>2022-05-25T14:15:43.838Z</time>
      </trkpt>
      <trkpt lat="47.28007" lon="5.88487">
        <ele>252.114368</ele>
        <time>2022-05-25T14:16:13.969Z</time>
      </trkpt>
      <trkpt lat="47.28007" lon="5.88487">
        <ele>252.114368</ele>
        <time>2022-05-25T14:16:14.124Z</time>
      </trkpt>
      <trkpt lat="47.28007" lon="5.88487">
        <ele>252.114368</ele>
        <time>2022-05-25T14:16:14.354Z</time>
      </trkpt>
      <trkpt lat="47.28079" lon="5.88545">
        <ele>252.610126</ele>
        <time>2022-05-25T14:17:54.100Z</time>
      </trkpt>
      <trkpt lat="47.28107" lon="5.88585">
        <ele>252.733277</ele>
        <time>2022-05-25T14:18:41.828Z</time>
      </trkpt>
      <trkpt lat="47.28156" lon="5.88738">
        <ele>252.85737</ele>
        <time>2022-05-25T14:21:05.593Z</time>
      </trkpt>
      <trkpt lat="47.28162" lon="5.88766">
        <ele>252.878399</ele>
        <time>2022-05-25T14:21:29.559Z</time>
      </trkpt>
      <trkpt lat="47.28177" lon="5.88839">
        <ele>251.970819</ele>
        <time>2022-05-25T14:22:34.944Z</time>
      </trkpt>
      <trkpt lat="47.28184" lon="5.88945">
        <ele>249.650732</ele>
        <time>2022-05-25T14:24:07.122Z</time>
      </trkpt>
      <trkpt lat="47.28195" lon="5.88975">
        <ele>248.915837</ele>
        <time>2022-05-25T14:24:36.545Z</time>
      </trkpt>
      <trkpt lat="47.28195" lon="5.88975">
        <ele>248.915837</ele>
        <time>2022-05-25T14:24:36.960Z</time>
      </trkpt>
      <trkpt lat="47.28236" lon="5.89056">
        <ele>246.517672</ele>
        <time>2022-05-25T14:26:06.567Z</time>
      </trkpt>
      <trkpt lat="47.28258" lon="5.8909">
        <ele>245.083622</ele>
        <time>2022-05-25T14:26:47.720Z</time>
      </trkpt>
      <trkpt lat="47.28498" lon="5.89332">
        <ele>231.626986</ele>
        <time>2022-05-25T14:33:10.804Z</time>
      </trkpt>
      <trkpt lat="47.28527" lon="5.89367">
        <ele>230.508247</ele>
        <time>2022-05-25T14:34:00.318Z</time>
      </trkpt>
      <trkpt lat="47.28589" lon="5.89468">
        <ele>230.508247</ele>
        <time>2022-05-25T14:36:01.414Z</time>
      </trkpt>
      <trkpt lat="47.28619" lon="5.89542">
        <ele>230.508247</ele>
        <time>2022-05-25T14:37:15.973Z</time>
      </trkpt>
      <trkpt lat="47.28627" lon="5.89592">
        <ele>230.508247</ele>
        <time>2022-05-25T14:37:59.735Z</time>
      </trkpt>
      <trkpt lat="47.28619" lon="5.89581">
        <ele>230.508247</ele>
        <time>2022-05-25T14:38:13.257Z</time>
      </trkpt>
      <trkpt lat="47.28611" lon="5.89572">
        <ele>230.508247</ele>
        <time>2022-05-25T14:38:25.907Z</time>
      </trkpt>
      <trkpt lat="47.28605" lon="5.89555">
        <ele>230.508247</ele>
        <time>2022-05-25T14:38:42.855Z</time>
      </trkpt>
    </trkseg>
  </trk>
</gpx>